A- A+ FrançaisEnglishEspañol中国

Services sur Internet Soldes sur Internet Des idées de cadeaux Météo Météo aéro

La météo à : Autours de vous Tarbes-Lourdes-PyrénéesCherbourg-Maupertus Le-Havre-OctevilleAvignon Pujaut

La météo aéronautique pour les pilotes, la préparation du vol avec les METAR (METeorological Aerodrome Report, message d'observation des conditions météorologiques pour l'aviation) et Les TAF (Terminal Aerodrome Forecast : message de prévision à court terme des conditions météorologiques pour l'aviation). Et les autres ressources comme les VAC (Visual Approch Chart) et les NOTAM (Notice To Airman) pour préprer les vols.

Aéroport Annaba Mellah (Algérie) / OACI DABB/ IATA AAE

L'altitude de l'aéroport Annaba Mellah est de 5 m = 16 ft. Il est situé à proximité de Annaba (Algérie). La météo générale à 5 jours est disponible pour Annaba situé à 9.4 km.

METAR de l'aéroport Annaba Mellah - DABB

DABB 091830Z 27013KT 8000 -RA FEW020TCU FEW023CB BKN030 14/12 Q1018

Décodage du METAR de l'aéroport Annaba Mellah (DZ)

METAR émis par DABB le lundi 9 décembre 2019 à 18:30 heure TU, il y a 20 minutes.

La visibilité est de 8 km = 5 sm.

La température est de 14°C = 57 °F et le point rosée est de 12°C = 54 °F . Ce qui correspond à 88% d'humidité relative.

Le QNH est de 1018 hPa = 30.06 inHg

Vent de 13 kt = 24 km/h, orienté à 270°.

Nuages : Quelques nuages à 2000 ft = 610 mètres. Quelques nuages à 2300 ft = 700 mètres. Couverture nuageuse fragmentée à 3000 ft = 910 mètres.

-RA

TAF de l'aéroport Annaba Mellah - DABB

DABB 091700Z 0918/1018 25010KT 9999 FEW020 SCT030 TEMPO 0918/0924 -RA FEW020TCU FEW023CB PROB40 TEMPO 0921/1018 5000 -TSRA FEW023CB BECMG 1004/1006 31014KT PROB30 TEMPO 1006/1018 3000 TSRA SCT020CB

DABB 091700Z 0918/1018 25010KT 9999 quelques nuages à 020 nuages épars à 030 temporairement 0918/0924 faible RA quelques nuages à 020TCU quelques nuages à 023CB probabilité de 40% d'avoir temporairement 0921/1018 5000 faible TSRA quelques nuages à 023CB devenant 1004/1006 31014KT probabilité de 30% d'avoir temporairement 1006/1018 3000 orage RA nuages épars à 020CB

Aéroport à proximité de Annaba Mellah

Météo générale à 5 jours à Annaba (9.4 km)Aéroport Tabarka (97 km)Aéroport Constantine Ain El Bey (122 km)Aéroport Telergma (152 km)Aéroport Tebessa (157 km)Aéroport Jijell Taher (172 km)Aéroport Batna (180 km)

Vue aérienne de l'aéroport Annaba Mellah

NOTAM de l'aéroport Annaba Mellah

Les NOTAM sont fournis sans aucune garantie de leur actualité. Le pilote est le seul responsable de la vérification de sa validité avant de l'utiliser opérationnellement pour préparer un vol ou l'utiliser lors de sa navigation.

Pas de NOTAM

Sources des données